Archival Weather

Chicago O'Hare International

Chicago, Illinois (KORD)

Report from: Monday, January 2, 2023 10:51 PM CST
Current time: Monday, June 17, 2024 3:26 AM CDT

Current weather – Weather history – Daily summaries
Weather forecast

Present weatherFog
Temperature3.9°C (39.0°F)
Wind chill-0.1°C (31.8°F)
Dew point2.2°C (36.0°F)
Winds 10 kts (5.1 m/s, 11.5 mph) North-Northeast (30°)
Visibility2640 ft. (804.7 m)
Clouds Ceiling: Overcast 200 ft. (61 m)
Altimeter29.87 in.Hg (1012 mB)
Relative humidity89 %
Density altitude-1,196 ft. (-365 m)
Sea-level pressure101.2 kPa (1012 mB, 29.88 in.Hg)
Remarks Automated weather observing station with precipitation discriminator
Flight conditions Low Instrument Meteorological Conditions
Raw dataKORD 030451Z 03010KT 1/2SM R10L/4500V6000FT FG OVC002 04/02 A2987 RMK AO2 SLP120 T00390022
An error has occurred. This application may no longer respond until reloaded. Reload 🗙